Adirondack Regional Airport Saranac Lake US
ICAO: KSLK
IATA: SLK
Category: Medium
Scheduled Services: Yes

Elevation: 1663 ft
TransAlt. 18000 ft.

Airport Communications:
ASOS:124.175
BOSTON CNTR:120.35
BURLINGTON RDO:109.2
CTAF/UNICOM:123

KSLK Zoom In..

If you have problems with the map follow the link
https://www.worldairports.se/pages/airport.php?
ICAO=KSLK

Runways:

(A) RW 05 length 6573 ft width 150 ft
---- / hdg 49

(B) RW 09 length 3998 ft width 100 ft
---- / hdg 93

(C) RW 23 length 6573 ft width 150 ft
ILS 108.90 / hdg 229

(D) RW 27 length 3998 ft width 100 ft
---- / hdg 273

Location; KSLK
Day. 22 / Time. 12.51 Zulu
* Altimeter: 30.24
* Temperature: -05° c. -23°f.
* Wind from: 220° Speed 07 kn.
Dewpoint: -07° c.
Visibility: 10 Statute Miles.
Clouds: Overcast 1100 ft.

KSLK 221251Z AUTO 22007KT 10SM OVC011 M05/M07 A3024 RMK AO2 SLP270 T10501072


Wind From 220°
Speed 07 kn.

 
 
jpsmedia worldairports.se 2020   terms of use